Time,TemperatureF,DewpointF,PressureIn,WindDirection,WindDirectionDegrees,WindSpeedMPH,WindSpeedGustMPH,Humidity,HourlyPrecipIn,Conditions,Clouds,dailyrainin,SoftwareType,DateUTC
2013-01-12 00:03:00,46.0,46.0,30.09,South,190,2.0,4.0,99,-99.99,,,-99.99,,2013-01-12 05:03:00,
2013-01-12 00:12:00,46.0,46.0,30.09,South,190,2.0,4.0,99,-99.99,,,-99.99,,2013-01-12 05:12:00,
2013-01-12 00:22:00,46.0,46.0,30.09,South,189,0.0,3.0,99,-99.99,,,-99.99,,2013-01-12 05:22:00,
2013-01-12 00:32:00,47.0,47.0,30.09,SE,141,2.0,5.0,99,-99.99,,,-99.99,,2013-01-12 05:32:00,
2013-01-12 00:42:00,47.0,47.0,30.09,SE,141,2.0,5.0,99,-99.99,,,-99.99,,2013-01-12 05:42:00,
2013-01-12 00:52:00,47.0,47.0,30.09,SSW,193,2.0,4.0,99,-99.99,,,-99.99,,2013-01-12 05:52:00,
2013-01-12 01:03:00,48.0,48.0,30.08,South,173,2.0,4.0,99,-99.99,,,-99.99,,2013-01-12 06:03:00,
2013-01-12 01:12:00,48.0,48.0,30.08,South,173,2.0,4.0,99,-99.99,,,-99.99,,2013-01-12 06:12:00,
2013-01-12 01:22:00,48.0,48.0,30.08,SW,224,0.0,3.0,99,-99.99,,,-99.99,,2013-01-12 06:22:00,
2013-01-12 01:33:00,49.0,49.0,30.09,SSE,165,4.0,6.0,99,-99.99,,,-99.99,,2013-01-12 06:33:00,
2013-01-12 01:43:00,49.0,49.0,30.09,SSE,165,4.0,6.0,99,-99.99,,,-99.99,,2013-01-12 06:43:00,
2013-01-12 01:53:00,49.0,49.0,30.08,South,170,2.0,5.0,99,-99.99,,,-99.99,,2013-01-12 06:53:00,
2013-01-12 02:02:00,50.0,50.0,30.09,SE,132,1.0,4.0,99,-99.99,,,-99.99,,2013-01-12 07:02:00,
2013-01-12 02:12:00,50.0,50.0,30.09,SE,132,1.0,4.0,99,-99.99,,,-99.99,,2013-01-12 07:12:00,
2013-01-12 02:22:00,50.0,50.0,30.09,ESE,122,0.0,1.0,99,-99.99,,,-99.99,,2013-01-12 07:22:00,
2013-01-12 02:32:00,50.0,50.0,30.09,WNW,287,0.0,2.0,99,-99.99,,,-99.99,,2013-01-12 07:32:00,
2013-01-12 02:42:00,50.0,50.0,30.09,WNW,287,0.0,2.0,99,-99.99,,,-99.99,,2013-01-12 07:42:00,
2013-01-12 02:53:00,50.0,50.0,30.09,South,191,1.0,2.0,99,-99.99,,,-99.99,,2013-01-12 07:53:00,
2013-01-12 03:02:00,50.0,50.0,30.09,SE,144,0.0,4.0,99,-99.99,,,-99.99,,2013-01-12 08:02:00,
2013-01-12 03:12:00,50.0,50.0,30.09,SE,144,0.0,4.0,99,-99.99,,,-99.99,,2013-01-12 08:12:00,
2013-01-12 03:22:00,50.0,50.0,30.09,SSW,193,0.0,3.0,99,-99.99,,,-99.99,,2013-01-12 08:22:00,
2013-01-12 03:32:00,51.0,51.0,30.09,SSE,160,1.0,2.0,99,-99.99,,,-99.99,,2013-01-12 08:32:00,
2013-01-12 03:42:00,51.0,51.0,30.09,SSE,160,1.0,2.0,99,-99.99,,,-99.99,,2013-01-12 08:42:00,
2013-01-12 03:53:00,51.0,51.0,30.09,SE,134,0.0,3.0,99,-99.99,,,-99.99,,2013-01-12 08:53:00,
2013-01-12 04:02:00,51.0,51.0,30.08,SSE,165,3.0,3.0,99,-99.99,,,-99.99,,2013-01-12 09:02:00,
2013-01-12 04:12:00,51.0,51.0,30.08,SSE,165,3.0,3.0,99,-99.99,,,-99.99,,2013-01-12 09:12:00,
2013-01-12 04:22:00,51.0,51.0,30.08,SSE,158,2.0,2.0,99,-99.99,,,-99.99,,2013-01-12 09:22:00,
2013-01-12 04:32:00,51.0,51.0,30.08,SE,144,1.0,5.0,99,-99.99,,,-99.99,,2013-01-12 09:32:00,
2013-01-12 04:42:00,51.0,51.0,30.08,SE,144,1.0,5.0,99,-99.99,,,-99.99,,2013-01-12 09:42:00,
2013-01-12 04:53:00,51.0,51.0,30.08,SSE,155,0.0,3.0,99,-99.99,,,-99.99,,2013-01-12 09:53:00,
2013-01-12 05:02:00,51.0,51.0,30.08,SSE,168,1.0,4.0,99,-99.99,,,-99.99,,2013-01-12 10:02:00,
2013-01-12 05:12:00,51.0,51.0,30.08,SSE,168,1.0,4.0,99,-99.99,,,-99.99,,2013-01-12 10:12:00,
2013-01-12 05:22:00,51.0,51.0,30.07,South,169,0.0,2.0,99,-99.99,,,-99.99,,2013-01-12 10:22:00,
2013-01-12 05:32:00,51.0,51.0,30.08,SSW,207,1.0,2.0,99,-99.99,,,-99.99,,2013-01-12 10:32:00,
2013-01-12 05:42:00,51.0,51.0,30.08,SSW,207,1.0,2.0,99,-99.99,,,-99.99,,2013-01-12 10:42:00,
2013-01-12 05:52:00,51.0,51.0,30.08,South,175,3.0,4.0,99,-99.99,,,-99.99,,2013-01-12 10:52:00,
2013-01-12 06:02:00,51.0,51.0,30.08,SE,132,2.0,4.0,99,-99.99,,,-99.99,,2013-01-12 11:02:00,
2013-01-12 06:12:00,51.0,51.0,30.08,SE,132,2.0,4.0,99,-99.99,,,-99.99,,2013-01-12 11:12:00,
2013-01-12 06:22:00,52.0,52.0,30.08,SSE,160,1.0,2.0,99,-99.99,,,-99.99,,2013-01-12 11:22:00,
2013-01-12 06:33:00,52.0,52.0,30.07,SE,130,0.0,3.0,99,-99.99,,,-99.99,,2013-01-12 11:33:00,
2013-01-12 06:42:00,52.0,52.0,30.07,SE,130,0.0,3.0,99,-99.99,,,-99.99,,2013-01-12 11:42:00,
2013-01-12 06:53:00,52.0,52.0,30.07,South,175,1.0,4.0,99,-99.99,,,-99.99,,2013-01-12 11:53:00,
2013-01-12 07:03:00,52.0,52.0,30.07,South,184,0.0,4.0,99,-99.99,,,-99.99,,2013-01-12 12:03:00,
2013-01-12 07:12:00,52.0,52.0,30.07,South,184,0.0,4.0,99,-99.99,,,-99.99,,2013-01-12 12:12:00,
2013-01-12 07:22:00,52.0,52.0,30.09,SSE,162,4.0,6.0,99,-99.99,,,-99.99,,2013-01-12 12:22:00,
2013-01-12 07:33:00,52.0,52.0,30.08,SSE,158,0.0,2.0,99,-99.99,,,-99.99,,2013-01-12 12:33:00,
2013-01-12 07:43:00,52.0,52.0,30.08,SSE,158,0.0,2.0,99,-99.99,,,-99.99,,2013-01-12 12:43:00,
2013-01-12 07:53:00,53.0,53.0,30.09,SSE,151,2.0,2.0,99,-99.99,,,-99.99,,2013-01-12 12:53:00,
2013-01-12 08:02:00,53.0,53.0,30.09,South,183,4.0,7.0,99,-99.99,,,-99.99,,2013-01-12 13:02:00,
2013-01-12 08:12:00,53.0,53.0,30.09,South,183,4.0,7.0,99,-99.99,,,-99.99,,2013-01-12 13:12:00,
2013-01-12 08:23:00,53.0,53.0,30.09,SE,137,0.0,3.0,99,-99.99,,,-99.99,,2013-01-12 13:23:00,
2013-01-12 08:33:00,53.0,53.0,30.09,South,176,2.0,6.0,99,-99.99,,,-99.99,,2013-01-12 13:33:00,
2013-01-12 08:43:00,53.0,53.0,30.09,South,176,2.0,6.0,99,-99.99,,,-99.99,,2013-01-12 13:43:00,
2013-01-12 08:53:00,53.0,53.0,30.09,SE,145,4.0,5.0,99,-99.99,,,-99.99,,2013-01-12 13:53:00,
2013-01-12 09:02:00,53.0,53.0,30.10,ESE,121,2.0,8.0,99,-99.99,,,-99.99,,2013-01-12 14:02:00,
2013-01-12 09:12:00,53.0,53.0,30.10,ESE,121,2.0,8.0,99,-99.99,,,-99.99,,2013-01-12 14:12:00,
2013-01-12 09:22:00,53.0,53.0,30.11,SE,146,0.0,3.0,99,-99.99,,,-99.99,,2013-01-12 14:22:00,
2013-01-12 09:33:00,54.0,54.0,30.11,SSW,197,4.0,5.0,99,-99.99,,,-99.99,,2013-01-12 14:33:00,
2013-01-12 09:43:00,54.0,54.0,30.11,SSW,197,4.0,5.0,99,-99.99,,,-99.99,,2013-01-12 14:43:00,
2013-01-12 09:53:00,54.0,54.0,30.11,South,189,4.0,6.0,99,-99.99,,,-99.99,,2013-01-12 14:53:00,
2013-01-12 10:03:00,54.0,53.0,30.11,SE,142,4.0,6.0,98,-99.99,,,-99.99,,2013-01-12 15:03:00,
2013-01-12 10:13:00,54.0,53.0,30.11,SE,142,4.0,6.0,98,-99.99,,,-99.99,,2013-01-12 15:13:00,
2013-01-12 10:23:00,55.0,54.0,30.11,SSE,165,3.0,6.0,98,-99.99,,,-99.99,,2013-01-12 15:23:00,
2013-01-12 10:33:00,57.0,56.0,30.11,SSE,153,0.0,5.0,97,-99.99,,,-99.99,,2013-01-12 15:33:00,
2013-01-12 10:43:00,57.0,56.0,30.11,SSE,153,0.0,5.0,97,-99.99,,,-99.99,,2013-01-12 15:43:00,
2013-01-12 10:53:00,59.0,58.0,30.11,South,173,4.0,4.0,95,-99.99,,,-99.99,,2013-01-12 15:53:00,
2013-01-12 11:03:00,62.0,59.0,30.09,SE,145,2.0,4.0,91,-99.99,,,-99.99,,2013-01-12 16:03:00,
2013-01-12 11:12:00,62.0,59.0,30.09,SE,145,2.0,4.0,91,-99.99,,,-99.99,,2013-01-12 16:12:00,
2013-01-12 11:23:00,63.0,59.0,30.09,SSE,160,2.0,6.0,86,-99.99,,,-99.99,,2013-01-12 16:23:00,
2013-01-12 11:33:00,65.0,60.0,30.09,SE,145,4.0,6.0,83,-99.99,,,-99.99,,2013-01-12 16:33:00,
2013-01-12 11:43:00,65.0,60.0,30.09,SE,145,4.0,6.0,83,-99.99,,,-99.99,,2013-01-12 16:43:00,
2013-01-12 11:53:00,68.0,62.0,30.08,SSE,155,0.0,4.0,80,-99.99,,,-99.99,,2013-01-12 16:53:00,
2013-01-12 12:02:00,69.0,61.0,30.08,East,101,2.0,3.0,77,-99.99,,,-99.99,,2013-01-12 17:02:00,
2013-01-12 12:12:00,69.0,61.0,30.08,East,101,2.0,3.0,77,-99.99,,,-99.99,,2013-01-12 17:12:00,
2013-01-12 12:23:00,70.0,62.0,30.07,SSE,148,2.0,6.0,76,-99.99,,,-99.99,,2013-01-12 17:23:00,
2013-01-12 12:33:00,70.0,62.0,30.07,SSE,151,2.0,5.0,75,-99.99,,,-99.99,,2013-01-12 17:33:00,
2013-01-12 12:43:00,70.0,62.0,30.07,SSE,151,2.0,5.0,75,-99.99,,,-99.99,,2013-01-12 17:43:00,
2013-01-12 12:53:00,71.0,62.0,30.07,SE,138,0.0,3.0,73,-99.99,,,-99.99,,2013-01-12 17:53:00,
2013-01-12 13:03:00,73.0,63.0,30.06,SSE,156,0.0,0.0,70,-99.99,,,-99.99,,2013-01-12 18:03:00,
2013-01-12 13:12:00,73.0,63.0,30.06,SSE,156,0.0,0.0,70,-99.99,,,-99.99,,2013-01-12 18:12:00,
2013-01-12 13:23:00,74.0,62.0,30.05,South,183,5.0,7.0,66,-99.99,,,-99.99,,2013-01-12 18:23:00,
2013-01-12 13:33:00,74.0,62.0,30.04,South,169,6.0,6.0,66,-99.99,,,-99.99,,2013-01-12 18:33:00,
2013-01-12 13:43:00,74.0,62.0,30.04,South,169,6.0,6.0,66,-99.99,,,-99.99,,2013-01-12 18:43:00,
2013-01-12 13:53:00,74.0,61.0,30.05,SSW,207,2.0,7.0,64,-99.99,,,-99.99,,2013-01-12 18:53:00,
2013-01-12 14:03:00,74.0,62.0,30.05,SE,128,4.0,7.0,66,-99.99,,,-99.99,,2013-01-12 19:03:00,
2013-01-12 14:12:00,74.0,62.0,30.05,SE,128,4.0,7.0,66,-99.99,,,-99.99,,2013-01-12 19:12:00,
2013-01-12 14:23:00,73.0,63.0,30.04,SE,128,4.0,8.0,71,-99.99,,,-99.99,,2013-01-12 19:23:00,
2013-01-12 14:33:00,73.0,63.0,30.04,East,97,4.0,6.0,71,-99.99,,,-99.99,,2013-01-12 19:33:00,
2013-01-12 14:43:00,73.0,63.0,30.04,East,97,4.0,6.0,71,-99.99,,,-99.99,,2013-01-12 19:43:00,
2013-01-12 14:53:00,73.0,63.0,30.05,SE,139,4.0,7.0,70,-99.99,,,-99.99,,2013-01-12 19:53:00,
2013-01-12 15:03:00,72.0,63.0,30.04,SE,127,4.0,7.0,73,-99.99,,,-99.99,,2013-01-12 20:03:00,
2013-01-12 15:13:00,72.0,63.0,30.04,SE,127,4.0,7.0,73,-99.99,,,-99.99,,2013-01-12 20:13:00,
2013-01-12 15:22:00,70.0,62.0,30.05,SE,142,4.0,8.0,75,-99.99,,,-99.99,,2013-01-12 20:22:00,
2013-01-12 15:33:00,70.0,62.0,30.04,SSE,163,3.0,7.0,75,-99.99,,,-99.99,,2013-01-12 20:33:00,
2013-01-12 15:43:00,70.0,62.0,30.04,SSE,163,3.0,7.0,75,-99.99,,,-99.99,,2013-01-12 20:43:00,
2013-01-12 15:53:00,70.0,62.0,30.05,SSE,148,4.0,7.0,75,-99.99,,,-99.99,,2013-01-12 20:53:00,
2013-01-12 16:03:00,70.0,62.0,30.05,ESE,115,3.0,8.0,75,-99.99,,,-99.99,,2013-01-12 21:03:00,
2013-01-12 16:12:00,70.0,62.0,30.05,ESE,115,3.0,8.0,75,-99.99,,,-99.99,,2013-01-12 21:12:00,
2013-01-12 16:22:00,69.0,61.0,30.05,East,90,2.0,6.0,76,-99.99,,,-99.99,,2013-01-12 21:22:00,
2013-01-12 16:33:00,68.0,61.0,30.06,SE,144,4.0,4.0,77,-99.99,,,-99.99,,2013-01-12 21:33:00,
2013-01-12 16:43:00,68.0,61.0,30.06,SE,144,4.0,4.0,77,-99.99,,,-99.99,,2013-01-12 21:43:00,
2013-01-12 16:52:00,68.0,61.0,30.05,SE,138,4.0,7.0,77,-99.99,,,-99.99,,2013-01-12 21:52:00,
2013-01-12 17:03:00,67.0,60.0,30.06,SSW,200,2.0,4.0,79,-99.99,,,-99.99,,2013-01-12 22:03:00,
2013-01-12 17:12:00,67.0,60.0,30.06,SSW,200,2.0,4.0,79,-99.99,,,-99.99,,2013-01-12 22:12:00,
2013-01-12 17:23:00,66.0,60.0,30.06,South,180,3.0,4.0,81,-99.99,,,-99.99,,2013-01-12 22:23:00,
2013-01-12 17:33:00,65.0,60.0,30.06,SE,128,2.0,4.0,84,-99.99,,,-99.99,,2013-01-12 22:33:00,
2013-01-12 17:43:00,65.0,60.0,30.06,SE,128,2.0,4.0,84,-99.99,,,-99.99,,2013-01-12 22:43:00,
2013-01-12 17:53:00,64.0,59.0,30.06,South,176,3.0,3.0,85,-99.99,,,-99.99,,2013-01-12 22:53:00,
2013-01-12 18:03:00,63.0,59.0,30.05,ESE,107,0.0,4.0,88,-99.99,,,-99.99,,2013-01-12 23:03:00,
2013-01-12 18:13:00,63.0,59.0,30.05,ESE,107,0.0,4.0,88,-99.99,,,-99.99,,2013-01-12 23:13:00,
2013-01-12 18:23:00,63.0,60.0,30.05,ENE,62,2.0,4.0,89,-99.99,,,-99.99,,2013-01-12 23:23:00,
2013-01-12 18:33:00,62.0,60.0,30.06,SSE,160,0.0,0.0,92,-99.99,,,-99.99,,2013-01-12 23:33:00,
2013-01-12 18:43:00,62.0,60.0,30.06,SSE,160,0.0,0.0,92,-99.99,,,-99.99,,2013-01-12 23:43:00,
2013-01-12 18:53:00,62.0,60.0,30.06,ENE,63,0.0,3.0,92,-99.99,,,-99.99,,2013-01-12 23:53:00,
2013-01-12 19:03:00,61.0,59.0,30.05,ENE,63,0.0,0.0,94,-99.99,,,-99.99,,2013-01-13 00:03:00,
2013-01-12 19:12:00,61.0,59.0,30.05,ENE,63,0.0,0.0,94,-99.99,,,-99.99,,2013-01-13 00:12:00,
2013-01-12 19:23:00,61.0,60.0,30.05,SSW,200,2.0,4.0,95,-99.99,,,-99.99,,2013-01-13 00:23:00,
2013-01-12 19:33:00,60.0,59.0,30.06,SW,217,0.0,2.0,95,-99.99,,,-99.99,,2013-01-13 00:33:00,
2013-01-12 19:43:00,60.0,59.0,30.06,SW,217,0.0,2.0,95,-99.99,,,-99.99,,2013-01-13 00:43:00,
2013-01-12 19:53:00,61.0,60.0,30.05,SE,145,0.0,3.0,95,-99.99,,,-99.99,,2013-01-13 00:53:00,
2013-01-12 20:03:00,60.0,59.0,30.06,South,190,2.0,3.0,96,-99.99,,,-99.99,,2013-01-13 01:03:00,
2013-01-12 20:12:00,60.0,59.0,30.06,South,190,2.0,3.0,96,-99.99,,,-99.99,,2013-01-13 01:12:00,
2013-01-12 20:23:00,60.0,59.0,30.05,South,187,0.0,0.0,96,-99.99,,,-99.99,,2013-01-13 01:23:00,
2013-01-12 20:33:00,60.0,59.0,30.05,South,187,0.0,0.0,96,-99.99,,,-99.99,,2013-01-13 01:33:00,
2013-01-12 20:43:00,60.0,59.0,30.05,South,187,0.0,0.0,96,-99.99,,,-99.99,,2013-01-13 01:43:00,
2013-01-12 20:53:00,60.0,59.0,30.06,South,187,0.0,0.0,96,-99.99,,,-99.99,,2013-01-13 01:53:00,
2013-01-12 21:02:00,59.0,58.0,30.05,South,187,0.0,0.0,96,-99.99,,,-99.99,,2013-01-13 02:02:00,
2013-01-12 21:13:00,59.0,58.0,30.05,South,187,0.0,0.0,96,-99.99,,,-99.99,,2013-01-13 02:13:00,
2013-01-12 21:23:00,58.0,57.0,30.05,South,187,0.0,0.0,96,-99.99,,,-99.99,,2013-01-13 02:23:00,
2013-01-12 21:33:00,58.0,57.0,30.05,South,187,0.0,0.0,96,-99.99,,,-99.99,,2013-01-13 02:33:00,
2013-01-12 21:43:00,58.0,57.0,30.05,South,187,0.0,0.0,96,-99.99,,,-99.99,,2013-01-13 02:43:00,
2013-01-12 21:53:00,58.0,57.0,30.04,South,187,0.0,0.0,96,-99.99,,,-99.99,,2013-01-13 02:53:00,
2013-01-12 22:03:00,58.0,57.0,30.05,South,187,0.0,0.0,97,-99.99,,,-99.99,,2013-01-13 03:03:00,
2013-01-12 22:12:00,58.0,57.0,30.05,South,187,0.0,0.0,97,-99.99,,,-99.99,,2013-01-13 03:12:00,
2013-01-12 22:22:00,58.0,57.0,30.04,South,187,0.0,0.0,97,-99.99,,,-99.99,,2013-01-13 03:22:00,
2013-01-12 22:33:00,58.0,57.0,30.04,South,187,0.0,0.0,97,-99.99,,,-99.99,,2013-01-13 03:33:00,
2013-01-12 22:43:00,58.0,57.0,30.04,South,187,0.0,0.0,97,-99.99,,,-99.99,,2013-01-13 03:43:00,
2013-01-12 22:53:00,58.0,57.0,30.04,South,187,0.0,0.0,97,-99.99,,,-99.99,,2013-01-13 03:53:00,
2013-01-12 23:03:00,57.0,56.0,30.05,South,187,0.0,0.0,97,-99.99,,,-99.99,,2013-01-13 04:03:00,
2013-01-12 23:12:00,57.0,56.0,30.05,South,187,0.0,0.0,97,-99.99,,,-99.99,,2013-01-13 04:12:00,
2013-01-12 23:22:00,56.0,55.0,30.05,South,187,0.0,0.0,97,-99.99,,,-99.99,,2013-01-13 04:22:00,
2013-01-12 23:33:00,57.0,56.0,30.05,South,187,0.0,0.0,97,-99.99,,,-99.99,,2013-01-13 04:33:00,
2013-01-12 23:43:00,57.0,56.0,30.05,South,187,0.0,0.0,97,-99.99,,,-99.99,,2013-01-13 04:43:00,
2013-01-12 23:52:00,57.0,56.0,30.04,South,187,0.0,0.0,97,-99.99,,,-99.99,,2013-01-13 04:52:00,